sensor_id;sensor_type;location;lat;lon;timestamp;pressure;altitude;pressure_sealevel;temperature;humidity
13209;BME280;6669;42.678;23.332;2023-06-22T00:00:54;94947.25;;;18.98;100.00
13209;BME280;6669;42.678;23.332;2023-06-22T00:03:23;94948.66;;;18.93;100.00
13209;BME280;6669;42.678;23.332;2023-06-22T00:05:52;94947.25;;;18.98;100.00
13209;BME280;6669;42.678;23.332;2023-06-22T00:08:20;94950.22;;;19.01;100.00
13209;BME280;6669;42.678;23.332;2023-06-22T00:10:50;94947.28;;;18.91;100.00
13209;BME280;6669;42.678;23.332;2023-06-22T00:13:18;94943.66;;;18.85;100.00
13209;BME280;6669;42.678;23.332;2023-06-22T00:15:46;94941.28;;;18.77;100.00
13209;BME280;6669;42.678;23.332;2023-06-22T00:18:14;94938.72;;;18.70;100.00
13209;BME280;6669;42.678;23.332;2023-06-22T00:20:42;94949.47;;;18.69;100.00
13209;BME280;6669;42.678;23.332;2023-06-22T00:23:12;94940.56;;;18.63;100.00
13209;BME280;6669;42.678;23.332;2023-06-22T00:25:42;94926.72;;;18.74;100.00
13209;BME280;6669;42.678;23.332;2023-06-22T00:28:12;94931.75;;;18.76;100.00
13209;BME280;6669;42.678;23.332;2023-06-22T00:30:40;94921.22;;;18.76;100.00
13209;BME280;6669;42.678;23.332;2023-06-22T00:33:08;94918.78;;;18.81;100.00
13209;BME280;6669;42.678;23.332;2023-06-22T00:35:36;94917.00;;;18.75;100.00
13209;BME280;6669;42.678;23.332;2023-06-22T00:38:04;94923.50;;;18.72;100.00
13209;BME280;6669;42.678;23.332;2023-06-22T00:40:32;94908.78;;;18.65;100.00
13209;BME280;6669;42.678;23.332;2023-06-22T00:43:01;94913.00;;;18.66;100.00
13209;BME280;6669;42.678;23.332;2023-06-22T00:45:31;94913.38;;;18.69;100.00
13209;BME280;6669;42.678;23.332;2023-06-22T00:47:59;94912.16;;;18.72;100.00
13209;BME280;6669;42.678;23.332;2023-06-22T00:50:29;94918.41;;;18.77;100.00
13209;BME280;6669;42.678;23.332;2023-06-22T00:53:01;94920.44;;;18.75;100.00
13209;BME280;6669;42.678;23.332;2023-06-22T00:55:36;94920.91;;;18.66;100.00
13209;BME280;6669;42.678;23.332;2023-06-22T00:58:06;94916.88;;;18.63;100.00
13209;BME280;6669;42.678;23.332;2023-06-22T01:00:40;94925.06;;;18.55;100.00
13209;BME280;6669;42.678;23.332;2023-06-22T01:03:08;94930.78;;;18.45;100.00
13209;BME280;6669;42.678;23.332;2023-06-22T01:05:38;94938.13;;;18.43;100.00
13209;BME280;6669;42.678;23.332;2023-06-22T01:08:19;94929.84;;;18.39;100.00
13209;BME280;6669;42.678;23.332;2023-06-22T01:10:55;94924.75;;;18.38;100.00
13209;BME280;6669;42.678;23.332;2023-06-22T01:13:28;94925.13;;;18.41;100.00
13209;BME280;6669;42.678;23.332;2023-06-22T01:16:04;94927.75;;;18.48;100.00
13209;BME280;6669;42.678;23.332;2023-06-22T01:18:35;94925.75;;;18.43;100.00
13209;BME280;6669;42.678;23.332;2023-06-22T01:21:04;94928.75;;;18.47;100.00
13209;BME280;6669;42.678;23.332;2023-06-22T01:23:50;94933.66;;;18.43;100.00
13209;BME280;6669;42.678;23.332;2023-06-22T01:26:25;94929.22;;;18.37;100.00
13209;BME280;6669;42.678;23.332;2023-06-22T01:28:58;94932.47;;;18.33;100.00
13209;BME280;6669;42.678;23.332;2023-06-22T01:31:28;94931.34;;;18.22;100.00
13209;BME280;6669;42.678;23.332;2023-06-22T01:33:59;94935.84;;;18.14;100.00
13209;BME280;6669;42.678;23.332;2023-06-22T01:36:29;94940.47;;;18.19;100.00
13209;BME280;6669;42.678;23.332;2023-06-22T01:38:58;94940.69;;;18.18;100.00
13209;BME280;6669;42.678;23.332;2023-06-22T01:41:28;94940.88;;;18.23;100.00
13209;BME280;6669;42.678;23.332;2023-06-22T01:43:59;94942.25;;;18.25;100.00
13209;BME280;6669;42.678;23.332;2023-06-22T01:46:28;94946.50;;;18.26;100.00
13209;BME280;6669;42.678;23.332;2023-06-22T01:48:57;94938.63;;;18.26;100.00
13209;BME280;6669;42.678;23.332;2023-06-22T01:51:25;94948.94;;;18.28;100.00
13209;BME280;6669;42.678;23.332;2023-06-22T01:53:53;94945.91;;;18.24;100.00
13209;BME280;6669;42.678;23.332;2023-06-22T01:56:23;94953.97;;;18.29;100.00
13209;BME280;6669;42.678;23.332;2023-06-22T01:58:57;94950.75;;;18.27;100.00
13209;BME280;6669;42.678;23.332;2023-06-22T02:01:33;94955.59;;;18.30;100.00
13209;BME280;6669;42.678;23.332;2023-06-22T02:04:04;94946.88;;;18.30;100.00
13209;BME280;6669;42.678;23.332;2023-06-22T02:06:39;94963.31;;;18.25;100.00
13209;BME280;6669;42.678;23.332;2023-06-22T02:09:12;94965.50;;;18.28;100.00
13209;BME280;6669;42.678;23.332;2023-06-22T02:11:44;94970.22;;;18.20;100.00
13209;BME280;6669;42.678;23.332;2023-06-22T02:14:13;94961.97;;;18.09;100.00
13209;BME280;6669;42.678;23.332;2023-06-22T02:16:46;94961.22;;;17.95;100.00
13209;BME280;6669;42.678;23.332;2023-06-22T02:19:15;94948.47;;;17.99;100.00
13209;BME280;6669;42.678;23.332;2023-06-22T02:21:45;94948.09;;;17.95;100.00
13209;BME280;6669;42.678;23.332;2023-06-22T02:24:13;94958.78;;;18.01;100.00
13209;BME280;6669;42.678;23.332;2023-06-22T02:26:42;94959.00;;;17.99;100.00
13209;BME280;6669;42.678;23.332;2023-06-22T02:29:12;94948.09;;;17.95;100.00
13209;BME280;6669;42.678;23.332;2023-06-22T02:31:40;94946.91;;;17.85;100.00
13209;BME280;6669;42.678;23.332;2023-06-22T02:34:09;94939.41;;;17.81;100.00
13209;BME280;6669;42.678;23.332;2023-06-22T02:36:41;94940.06;;;17.77;100.00
13209;BME280;6669;42.678;23.332;2023-06-22T02:39:19;94949.75;;;17.76;100.00
13209;BME280;6669;42.678;23.332;2023-06-22T02:41:48;94948.34;;;17.74;100.00
13209;BME280;6669;42.678;23.332;2023-06-22T02:44:17;94951.00;;;17.67;100.00
13209;BME280;6669;42.678;23.332;2023-06-22T02:46:45;94949.81;;;17.63;100.00
13209;BME280;6669;42.678;23.332;2023-06-22T02:49:14;94954.66;;;17.66;100.00
13209;BME280;6669;42.678;23.332;2023-06-22T02:51:45;94957.69;;;17.63;100.00
13209;BME280;6669;42.678;23.332;2023-06-22T02:54:14;94956.88;;;17.62;100.00
13209;BME280;6669;42.678;23.332;2023-06-22T02:56:43;94953.06;;;17.58;100.00
13209;BME280;6669;42.678;23.332;2023-06-22T02:59:11;94957.09;;;17.61;100.00
13209;BME280;6669;42.678;23.332;2023-06-22T03:01:39;94947.00;;;17.58;100.00
13209;BME280;6669;42.678;23.332;2023-06-22T03:04:08;94957.69;;;17.63;100.00
13209;BME280;6669;42.678;23.332;2023-06-22T03:06:37;94953.09;;;17.52;100.00
13209;BME280;6669;42.678;23.332;2023-06-22T03:09:07;94951.91;;;17.47;100.00
13209;BME280;6669;42.678;23.332;2023-06-22T03:11:35;94959.34;;;17.51;100.00
13209;BME280;6669;42.678;23.332;2023-06-22T03:14:03;94962.97;;;17.63;100.00
13209;BME280;6669;42.678;23.332;2023-06-22T03:16:31;94976.91;;;17.63;100.00
13209;BME280;6669;42.678;23.332;2023-06-22T03:18:59;94977.31;;;17.54;100.00
13209;BME280;6669;42.678;23.332;2023-06-22T03:21:28;94985.59;;;17.57;100.00
13209;BME280;6669;42.678;23.332;2023-06-22T03:23:58;94983.03;;;17.44;100.00
13209;BME280;6669;42.678;23.332;2023-06-22T03:26:26;94984.22;;;17.48;100.00
13209;BME280;6669;42.678;23.332;2023-06-22T03:28:54;94985.03;;;17.48;100.00
13209;BME280;6669;42.678;23.332;2023-06-22T03:31:22;94979.38;;;17.38;100.00
13209;BME280;6669;42.678;23.332;2023-06-22T03:33:50;94987.06;;;17.46;100.00
13209;BME280;6669;42.678;23.332;2023-06-22T03:36:21;94990.50;;;17.40;100.00
13209;BME280;6669;42.678;23.332;2023-06-22T03:38:50;94999.63;;;17.38;100.00
13209;BME280;6669;42.678;23.332;2023-06-22T03:41:19;94996.56;;;17.41;100.00
13209;BME280;6669;42.678;23.332;2023-06-22T03:43:47;94999.38;;;17.46;100.00
13209;BME280;6669;42.678;23.332;2023-06-22T03:46:15;94994.13;;;17.53;100.00
13209;BME280;6669;42.678;23.332;2023-06-22T03:48:43;95001.19;;;17.52;100.00
13209;BME280;6669;42.678;23.332;2023-06-22T03:51:11;95007.66;;;17.56;100.00
13209;BME280;6669;42.678;23.332;2023-06-22T03:53:40;95002.38;;;17.56;100.00
13209;BME280;6669;42.678;23.332;2023-06-22T03:56:08;95016.94;;;17.59;100.00
13209;BME280;6669;42.678;23.332;2023-06-22T03:58:37;95015.31;;;17.64;100.00
13209;BME280;6669;42.678;23.332;2023-06-22T04:01:09;95009.44;;;17.62;100.00
13209;BME280;6669;42.678;23.332;2023-06-22T04:03:38;95013.31;;;17.67;100.00
13209;BME280;6669;42.678;23.332;2023-06-22T04:06:07;95021.38;;;17.72;100.00
13209;BME280;6669;42.678;23.332;2023-06-22T04:08:35;95026.41;;;17.80;100.00
13209;BME280;6669;42.678;23.332;2023-06-22T04:11:03;95022.97;;;17.79;100.00
13209;BME280;6669;42.678;23.332;2023-06-22T04:13:31;95009.03;;;17.72;100.00
13209;BME280;6669;42.678;23.332;2023-06-22T04:16:01;95002.69;;;17.87;100.00
13209;BME280;6669;42.678;23.332;2023-06-22T04:18:29;94989.16;;;17.90;100.00
13209;BME280;6669;42.678;23.332;2023-06-22T04:20:57;94981.66;;;18.00;100.00
13209;BME280;6669;42.678;23.332;2023-06-22T04:23:25;94992.72;;;18.16;100.00
13209;BME280;6669;42.678;23.332;2023-06-22T04:25:53;94985.38;;;18.24;100.00
13209;BME280;6669;42.678;23.332;2023-06-22T04:28:23;94980.34;;;18.23;100.00
13209;BME280;6669;42.678;23.332;2023-06-22T04:30:53;94968.97;;;18.22;100.00
13209;BME280;6669;42.678;23.332;2023-06-22T04:33:30;94966.50;;;18.34;100.00
13209;BME280;6669;42.678;23.332;2023-06-22T04:35:59;94982.88;;;18.36;100.00
13209;BME280;6669;42.678;23.332;2023-06-22T04:38:28;94982.28;;;18.34;100.00
13209;BME280;6669;42.678;23.332;2023-06-22T04:40:59;94977.22;;;18.33;100.00
13209;BME280;6669;42.678;23.332;2023-06-22T04:43:28;94985.91;;;18.40;100.00
13209;BME280;6669;42.678;23.332;2023-06-22T04:45:57;94984.84;;;18.48;100.00
13209;BME280;6669;42.678;23.332;2023-06-22T04:48:31;94980.91;;;18.57;100.00
13209;BME280;6669;42.678;23.332;2023-06-22T04:51:00;94982.06;;;18.68;100.00
13209;BME280;6669;42.678;23.332;2023-06-22T04:53:30;94994.38;;;18.74;100.00
13209;BME280;6669;42.678;23.332;2023-06-22T04:55:58;94997.41;;;18.77;100.00
13209;BME280;6669;42.678;23.332;2023-06-22T04:58:26;95010.28;;;18.86;100.00
13209;BME280;6669;42.678;23.332;2023-06-22T05:00:55;95008.69;;;18.85;100.00
13209;BME280;6669;42.678;23.332;2023-06-22T05:03:25;95005.41;;;18.89;100.00
13209;BME280;6669;42.678;23.332;2023-06-22T05:05:55;95005.81;;;18.93;100.00
13209;BME280;6669;42.678;23.332;2023-06-22T05:08:23;95003.72;;;19.02;100.00
13209;BME280;6669;42.678;23.332;2023-06-22T05:10:55;95003.44;;;19.10;100.00
13209;BME280;6669;42.678;23.332;2023-06-22T05:13:31;95008.41;;;19.25;100.00
13209;BME280;6669;42.678;23.332;2023-06-22T05:15:59;95005.84;;;19.11;100.00
13209;BME280;6669;42.678;23.332;2023-06-22T05:18:30;94996.16;;;19.31;100.00
13209;BME280;6669;42.678;23.332;2023-06-22T05:21:00;95000.19;;;19.33;100.00
13209;BME280;6669;42.678;23.332;2023-06-22T05:23:28;95003.81;;;19.39;100.00
13209;BME280;6669;42.678;23.332;2023-06-22T05:25:56;95004.47;;;19.53;100.00
13209;BME280;6669;42.678;23.332;2023-06-22T05:28:25;95014.31;;;19.64;100.00
13209;BME280;6669;42.678;23.332;2023-06-22T05:30:53;95009.81;;;19.65;100.00
13209;BME280;6669;42.678;23.332;2023-06-22T05:33:21;95005.88;;;19.74;100.00
13209;BME280;6669;42.678;23.332;2023-06-22T05:35:50;95025.69;;;19.83;100.00
13209;BME280;6669;42.678;23.332;2023-06-22T05:38:19;95023.84;;;19.84;100.00
13209;BME280;6669;42.678;23.332;2023-06-22T05:40:47;95011.19;;;19.92;100.00
13209;BME280;6669;42.678;23.332;2023-06-22T05:43:15;95034.84;;;19.99;100.00
13209;BME280;6669;42.678;23.332;2023-06-22T05:45:43;95039.47;;;20.04;100.00
13209;BME280;6669;42.678;23.332;2023-06-22T05:48:11;95037.72;;;20.16;100.00
13209;BME280;6669;42.678;23.332;2023-06-22T05:50:39;95044.16;;;20.20;100.00
13209;BME280;6669;42.678;23.332;2023-06-22T05:53:07;95038.56;;;20.29;100.00
13209;BME280;6669;42.678;23.332;2023-06-22T05:55:36;95036.28;;;20.32;100.00
13209;BME280;6669;42.678;23.332;2023-06-22T05:58:04;95036.69;;;20.48;100.00
13209;BME280;6669;42.678;23.332;2023-06-22T06:00:32;95040.28;;;20.53;100.00
13209;BME280;6669;42.678;23.332;2023-06-22T06:03:01;95036.41;;;20.68;100.00
13209;BME280;6669;42.678;23.332;2023-06-22T06:05:30;95043.47;;;20.74;100.00
13209;BME280;6669;42.678;23.332;2023-06-22T06:07:59;95036.38;;;20.86;100.00
13209;BME280;6669;42.678;23.332;2023-06-22T06:10:29;95041.34;;;20.95;100.00
13209;BME280;6669;42.678;23.332;2023-06-22T06:13:00;95036.75;;;21.02;100.00
13209;BME280;6669;42.678;23.332;2023-06-22T06:15:31;95036.78;;;21.14;100.00
13209;BME280;6669;42.678;23.332;2023-06-22T06:17:59;95042.53;;;21.22;100.00
13209;BME280;6669;42.678;23.332;2023-06-22T06:20:28;95040.25;;;21.38;100.00
13209;BME280;6669;42.678;23.332;2023-06-22T06:22:58;95041.41;;;21.42;100.00
13209;BME280;6669;42.678;23.332;2023-06-22T06:25:26;95034.25;;;21.54;100.00
13209;BME280;6669;42.678;23.332;2023-06-22T06:27:54;95039.91;;;21.70;100.00
13209;BME280;6669;42.678;23.332;2023-06-22T06:30:24;95042.00;;;21.80;100.00
13209;BME280;6669;42.678;23.332;2023-06-22T06:32:52;95046.22;;;21.93;100.00
13209;BME280;6669;42.678;23.332;2023-06-22T06:35:20;95044.38;;;22.05;100.00
13209;BME280;6669;42.678;23.332;2023-06-22T06:37:49;95042.16;;;22.14;100.00
13209;BME280;6669;42.678;23.332;2023-06-22T06:40:18;95035.59;;;22.16;100.00
13209;BME280;6669;42.678;23.332;2023-06-22T06:42:48;95037.31;;;22.23;100.00
13209;BME280;6669;42.678;23.332;2023-06-22T06:45:18;95031.28;;;22.39;100.00
13209;BME280;6669;42.678;23.332;2023-06-22T06:47:48;95029.03;;;22.60;100.00
13209;BME280;6669;42.678;23.332;2023-06-22T06:50:17;95030.28;;;22.86;100.00
13209;BME280;6669;42.678;23.332;2023-06-22T06:52:45;95026.03;;;23.02;100.00
13209;BME280;6669;42.678;23.332;2023-06-22T06:55:13;95015.25;;;22.92;100.00
13209;BME280;6669;42.678;23.332;2023-06-22T06:57:42;95014.53;;;23.13;100.00
13209;BME280;6669;42.678;23.332;2023-06-22T07:00:12;95022.44;;;23.25;100.00
13209;BME280;6669;42.678;23.332;2023-06-22T07:02:42;95018.50;;;23.45;100.00
13209;BME280;6669;42.678;23.332;2023-06-22T07:05:12;95008.47;;;23.69;100.00
13209;BME280;6669;42.678;23.332;2023-06-22T07:07:40;95010.75;;;23.82;100.00
13209;BME280;6669;42.678;23.332;2023-06-22T07:10:10;95016.53;;;23.96;100.00
13209;BME280;6669;42.678;23.332;2023-06-22T07:12:39;95019.63;;;24.10;100.00
13209;BME280;6669;42.678;23.332;2023-06-22T07:15:09;95013.13;;;24.23;100.00
13209;BME280;6669;42.678;23.332;2023-06-22T07:17:38;95009.22;;;24.26;100.00
13209;BME280;6669;42.678;23.332;2023-06-22T07:20:09;95016.28;;;24.42;100.00
13209;BME280;6669;42.678;23.332;2023-06-22T07:22:42;95023.09;;;24.33;100.00
13209;BME280;6669;42.678;23.332;2023-06-22T07:25:11;95010.94;;;24.42;100.00
13209;BME280;6669;42.678;23.332;2023-06-22T07:27:45;95014.50;;;24.48;100.00
13209;BME280;6669;42.678;23.332;2023-06-22T07:30:14;95019.06;;;24.53;100.00
13209;BME280;6669;42.678;23.332;2023-06-22T07:32:43;95016.03;;;24.66;100.00
13209;BME280;6669;42.678;23.332;2023-06-22T07:35:11;94995.72;;;24.60;100.00
13209;BME280;6669;42.678;23.332;2023-06-22T07:37:40;95015.16;;;24.60;100.00
13209;BME280;6669;42.678;23.332;2023-06-22T07:40:09;95020.03;;;24.69;100.00
13209;BME280;6669;42.678;23.332;2023-06-22T07:42:37;95024.91;;;24.77;100.00
13209;BME280;6669;42.678;23.332;2023-06-22T07:45:07;95030.28;;;24.82;100.00
13209;BME280;6669;42.678;23.332;2023-06-22T07:47:35;95021.56;;;24.92;100.00
13209;BME280;6669;42.678;23.332;2023-06-22T07:50:04;95017.78;;;25.15;100.00
13209;BME280;6669;42.678;23.332;2023-06-22T07:52:32;95027.28;;;25.38;100.00
13209;BME280;6669;42.678;23.332;2023-06-22T07:55:02;95026.34;;;25.55;100.00
13209;BME280;6669;42.678;23.332;2023-06-22T07:57:30;95021.38;;;25.69;100.00
13209;BME280;6669;42.678;23.332;2023-06-22T08:00:02;95015.53;;;25.77;100.00
13209;BME280;6669;42.678;23.332;2023-06-22T08:02:38;95014.81;;;25.92;100.00
13209;BME280;6669;42.678;23.332;2023-06-22T08:05:07;95007.38;;;25.94;100.00
13209;BME280;6669;42.678;23.332;2023-06-22T08:07:48;95003.78;;;26.21;100.00
13209;BME280;6669;42.678;23.332;2023-06-22T08:10:18;95001.72;;;26.43;100.00
13209;BME280;6669;42.678;23.332;2023-06-22T08:12:47;95002.78;;;26.37;100.00
13209;BME280;6669;42.678;23.332;2023-06-22T08:15:15;95004.63;;;26.42;100.00
13209;BME280;6669;42.678;23.332;2023-06-22T08:17:44;95005.75;;;26.51;100.00
13209;BME280;6669;42.678;23.332;2023-06-22T08:20:12;94993.44;;;26.40;100.00
13209;BME280;6669;42.678;23.332;2023-06-22T08:22:41;94992.91;;;26.43;100.00
13209;BME280;6669;42.678;23.332;2023-06-22T08:25:10;95001.19;;;26.47;100.00
13209;BME280;6669;42.678;23.332;2023-06-22T08:27:44;94979.88;;;26.52;100.00
13209;BME280;6669;42.678;23.332;2023-06-22T08:30:13;94994.78;;;26.37;100.00
13209;BME280;6669;42.678;23.332;2023-06-22T08:32:41;94991.53;;;26.25;100.00
13209;BME280;6669;42.678;23.332;2023-06-22T08:35:09;94993.34;;;26.09;100.00
13209;BME280;6669;42.678;23.332;2023-06-22T08:37:37;94999.53;;;26.30;100.00
13209;BME280;6669;42.678;23.332;2023-06-22T08:40:08;94992.59;;;26.29;100.00
13209;BME280;6669;42.678;23.332;2023-06-22T08:42:39;94978.16;;;26.09;100.00
13209;BME280;6669;42.678;23.332;2023-06-22T08:45:10;95000.63;;;26.34;100.00
13209;BME280;6669;42.678;23.332;2023-06-22T08:47:38;95003.00;;;26.36;100.00
13209;BME280;6669;42.678;23.332;2023-06-22T08:50:08;94999.81;;;26.29;100.00
13209;BME280;6669;42.678;23.332;2023-06-22T08:52:37;94991.31;;;26.47;100.00
13209;BME280;6669;42.678;23.332;2023-06-22T08:55:08;94982.03;;;26.65;100.00
13209;BME280;6669;42.678;23.332;2023-06-22T08:57:36;94986.09;;;26.83;100.00
13209;BME280;6669;42.678;23.332;2023-06-22T09:00:07;94978.34;;;26.87;100.00
13209;BME280;6669;42.678;23.332;2023-06-22T09:02:45;94971.41;;;27.01;100.00
13209;BME280;6669;42.678;23.332;2023-06-22T09:05:13;94970.88;;;27.20;100.00
13209;BME280;6669;42.678;23.332;2023-06-22T09:07:42;94965.25;;;27.32;100.00
13209;BME280;6669;42.678;23.332;2023-06-22T09:10:10;94958.59;;;27.24;100.00
13209;BME280;6669;42.678;23.332;2023-06-22T09:12:39;94969.00;;;27.41;100.00
13209;BME280;6669;42.678;23.332;2023-06-22T09:15:07;94971.38;;;27.43;100.00
13209;BME280;6669;42.678;23.332;2023-06-22T09:17:43;94973.25;;;27.27;100.00
13209;BME280;6669;42.678;23.332;2023-06-22T09:20:13;94972.72;;;27.30;100.00
13209;BME280;6669;42.678;23.332;2023-06-22T09:22:42;94971.91;;;27.50;100.00
13209;BME280;6669;42.678;23.332;2023-06-22T09:25:10;94966.50;;;27.70;100.00
13209;BME280;6669;42.678;23.332;2023-06-22T09:27:39;94974.22;;;27.87;100.00
13209;BME280;6669;42.678;23.332;2023-06-22T09:30:08;94972.09;;;27.79;100.00
13209;BME280;6669;42.678;23.332;2023-06-22T09:32:36;94973.94;;;27.89;100.00
13209;BME280;6669;42.678;23.332;2023-06-22T09:35:07;94978.75;;;27.82;100.00
13209;BME280;6669;42.678;23.332;2023-06-22T09:37:39;94981.72;;;27.75;100.00
13209;BME280;6669;42.678;23.332;2023-06-22T09:40:08;94983.88;;;27.73;100.00
13209;BME280;6669;42.678;23.332;2023-06-22T09:42:37;94975.03;;;27.83;100.00
13209;BME280;6669;42.678;23.332;2023-06-22T09:45:06;94975.50;;;28.00;100.00
13209;BME280;6669;42.678;23.332;2023-06-22T09:47:34;94977.63;;;28.03;100.00
13209;BME280;6669;42.678;23.332;2023-06-22T09:50:02;94971.00;;;27.90;100.00
13209;BME280;6669;42.678;23.332;2023-06-22T09:52:32;94971.59;;;27.67;100.00
13209;BME280;6669;42.678;23.332;2023-06-22T09:55:14;94959.88;;;27.52;100.00
13209;BME280;6669;42.678;23.332;2023-06-22T09:57:43;94959.06;;;27.62;100.00
13209;BME280;6669;42.678;23.332;2023-06-22T10:00:12;94950.81;;;27.53;100.00
13209;BME280;6669;42.678;23.332;2023-06-22T10:02:41;94953.09;;;27.86;100.00
13209;BME280;6669;42.678;23.332;2023-06-22T10:05:10;94953.03;;;28.12;100.00
13209;BME280;6669;42.678;23.332;2023-06-22T10:07:40;94964.25;;;28.09;100.00
13209;BME280;6669;42.678;23.332;2023-06-22T10:10:11;94957.53;;;28.16;100.00
13209;BME280;6669;42.678;23.332;2023-06-22T10:12:47;94951.94;;;28.18;100.00
13209;BME280;6669;42.678;23.332;2023-06-22T10:15:15;94946.16;;;28.45;100.00
13209;BME280;6669;42.678;23.332;2023-06-22T10:17:44;94937.47;;;28.64;100.00
13209;BME280;6669;42.678;23.332;2023-06-22T10:20:12;94953.38;;;28.45;100.00
13209;BME280;6669;42.678;23.332;2023-06-22T10:22:43;94940.47;;;28.12;100.00
13209;BME280;6669;42.678;23.332;2023-06-22T10:25:12;94945.41;;;28.40;100.00
13209;BME280;6669;42.678;23.332;2023-06-22T10:27:40;94945.09;;;28.46;100.00
13209;BME280;6669;42.678;23.332;2023-06-22T10:30:10;94945.84;;;28.52;100.00
13209;BME280;6669;42.678;23.332;2023-06-22T10:32:40;94951.34;;;28.71;100.00
13209;BME280;6669;42.678;23.332;2023-06-22T10:35:09;94946.16;;;28.85;100.00
13209;BME280;6669;42.678;23.332;2023-06-22T10:37:42;94940.34;;;28.78;100.00
13209;BME280;6669;42.678;23.332;2023-06-22T10:40:12;94932.03;;;28.79;98.23
13209;BME280;6669;42.678;23.332;2023-06-22T10:42:40;94928.09;;;29.01;98.76
13209;BME280;6669;42.678;23.332;2023-06-22T10:45:09;94934.41;;;29.15;95.55
13209;BME280;6669;42.678;23.332;2023-06-22T10:47:37;94927.25;;;29.06;91.79
13209;BME280;6669;42.678;23.332;2023-06-22T10:50:06;94929.66;;;29.07;92.43
13209;BME280;6669;42.678;23.332;2023-06-22T10:52:34;94924.94;;;29.23;91.02
13209;BME280;6669;42.678;23.332;2023-06-22T10:55:04;94928.44;;;29.53;93.13
13209;BME280;6669;42.678;23.332;2023-06-22T10:57:32;94928.66;;;29.57;94.72
13209;BME280;6669;42.678;23.332;2023-06-22T11:00:00;94927.47;;;29.87;94.17
13209;BME280;6669;42.678;23.332;2023-06-22T11:02:28;94923.06;;;30.21;90.40
13209;BME280;6669;42.678;23.332;2023-06-22T11:04:56;94925.47;;;30.22;81.96
13209;BME280;6669;42.678;23.332;2023-06-22T11:07:27;94930.13;;;30.55;89.41
13209;BME280;6669;42.678;23.332;2023-06-22T11:09:55;94920.69;;;30.90;86.00
13209;BME280;6669;42.678;23.332;2023-06-22T11:12:25;94916.53;;;31.45;85.57
13209;BME280;6669;42.678;23.332;2023-06-22T11:14:53;94915.84;;;32.09;79.78
13209;BME280;6669;42.678;23.332;2023-06-22T11:17:23;94915.50;;;32.38;75.96
13209;BME280;6669;42.678;23.332;2023-06-22T11:19:51;94917.59;;;32.64;72.98
13209;BME280;6669;42.678;23.332;2023-06-22T11:22:19;94901.69;;;32.54;77.88
13209;BME280;6669;42.678;23.332;2023-06-22T11:24:47;94901.09;;;32.80;73.55
13209;BME280;6669;42.678;23.332;2023-06-22T11:27:15;94901.41;;;32.78;77.81
13209;BME280;6669;42.678;23.332;2023-06-22T11:29:45;94902.97;;;32.56;74.80
13209;BME280;6669;42.678;23.332;2023-06-22T11:32:13;94901.75;;;33.08;72.25
13209;BME280;6669;42.678;23.332;2023-06-22T11:34:41;94897.06;;;33.22;70.72
13209;BME280;6669;42.678;23.332;2023-06-22T11:37:09;94903.00;;;32.79;72.18
13209;BME280;6669;42.678;23.332;2023-06-22T11:39:37;94900.94;;;32.03;68.69
13209;BME280;6669;42.678;23.332;2023-06-22T11:42:08;94896.19;;;31.72;74.08
13209;BME280;6669;42.678;23.332;2023-06-22T11:44:37;94889.88;;;31.49;81.21
13209;BME280;6669;42.678;23.332;2023-06-22T11:47:06;94893.75;;;31.28;85.50
13209;BME280;6669;42.678;23.332;2023-06-22T11:49:34;94895.06;;;31.31;94.79
13209;BME280;6669;42.678;23.332;2023-06-22T11:52:03;94877.94;;;30.80;87.98
13209;BME280;6669;42.678;23.332;2023-06-22T11:54:31;94876.56;;;30.96;75.30
13209;BME280;6669;42.678;23.332;2023-06-22T11:56:59;94878.34;;;30.54;74.17
13209;BME280;6669;42.678;23.332;2023-06-22T11:59:27;94881.84;;;30.36;76.79
13209;BME280;6669;42.678;23.332;2023-06-22T12:01:55;94879.66;;;30.57;77.11
13209;BME280;6669;42.678;23.332;2023-06-22T12:04:26;94886.41;;;30.87;80.12
13209;BME280;6669;42.678;23.332;2023-06-22T12:06:54;94884.94;;;30.95;85.36
13209;BME280;6669;42.678;23.332;2023-06-22T12:09:22;94886.28;;;30.78;83.60
13209;BME280;6669;42.678;23.332;2023-06-22T12:11:50;94890.53;;;30.65;96.59
13209;BME280;6669;42.678;23.332;2023-06-22T12:14:18;94896.41;;;30.29;83.05
13209;BME280;6669;42.678;23.332;2023-06-22T12:16:46;94907.22;;;29.81;91.26
13209;BME280;6669;42.678;23.332;2023-06-22T12:19:14;94898.97;;;29.29;94.36
13209;BME280;6669;42.678;23.332;2023-06-22T12:21:43;94889.59;;;28.62;99.66
13209;BME280;6669;42.678;23.332;2023-06-22T12:24:13;94888.72;;;28.37;100.00
13209;BME280;6669;42.678;23.332;2023-06-22T12:26:41;94908.69;;;28.05;100.00
13209;BME280;6669;42.678;23.332;2023-06-22T12:29:09;94906.56;;;27.97;100.00
13209;BME280;6669;42.678;23.332;2023-06-22T12:31:37;94934.97;;;27.83;100.00
13209;BME280;6669;42.678;23.332;2023-06-22T12:34:06;94941.53;;;27.20;100.00
13209;BME280;6669;42.678;23.332;2023-06-22T12:36:34;94945.78;;;26.69;100.00
13209;BME280;6669;42.678;23.332;2023-06-22T12:39:03;94943.88;;;26.49;100.00
13209;BME280;6669;42.678;23.332;2023-06-22T12:41:32;94946.28;;;26.40;100.00
13209;BME280;6669;42.678;23.332;2023-06-22T12:44:00;94948.06;;;26.14;100.00
13209;BME280;6669;42.678;23.332;2023-06-22T12:46:28;94948.22;;;25.82;100.00
13209;BME280;6669;42.678;23.332;2023-06-22T12:48:56;94946.66;;;25.43;100.00
13209;BME280;6669;42.678;23.332;2023-06-22T12:51:25;94956.09;;;25.18;100.00
13209;BME280;6669;42.678;23.332;2023-06-22T12:53:57;94955.75;;;25.09;100.00
13209;BME280;6669;42.678;23.332;2023-06-22T12:56:26;94965.56;;;24.71;100.00
13209;BME280;6669;42.678;23.332;2023-06-22T12:58:54;94955.28;;;24.53;100.00
13209;BME280;6669;42.678;23.332;2023-06-22T13:01:23;94958.38;;;24.17;100.00